sensor_id;sensor_type;location;lat;lon;timestamp;temperature;humidity
14995;DHT22;7593;49.006;8.372;2023-08-17T00:01:23;21.40;99.90
14995;DHT22;7593;49.006;8.372;2023-08-17T00:03:49;21.40;99.90
14995;DHT22;7593;49.006;8.372;2023-08-17T00:06:16;21.40;99.90
14995;DHT22;7593;49.006;8.372;2023-08-17T00:08:44;21.40;99.90
14995;DHT22;7593;49.006;8.372;2023-08-17T00:11:11;21.40;99.90
14995;DHT22;7593;49.006;8.372;2023-08-17T00:13:38;21.40;99.90
14995;DHT22;7593;49.006;8.372;2023-08-17T00:16:04;21.40;99.90
14995;DHT22;7593;49.006;8.372;2023-08-17T00:18:31;21.40;99.90
14995;DHT22;7593;49.006;8.372;2023-08-17T00:20:59;21.40;99.90
14995;DHT22;7593;49.006;8.372;2023-08-17T00:23:26;21.40;99.90
14995;DHT22;7593;49.006;8.372;2023-08-17T00:25:54;21.30;99.90
14995;DHT22;7593;49.006;8.372;2023-08-17T00:28:21;21.30;99.90
14995;DHT22;7593;49.006;8.372;2023-08-17T00:30:47;21.30;99.90
14995;DHT22;7593;49.006;8.372;2023-08-17T00:33:14;21.30;99.90
14995;DHT22;7593;49.006;8.372;2023-08-17T00:35:41;21.30;99.90
14995;DHT22;7593;49.006;8.372;2023-08-17T00:38:08;21.30;99.90
14995;DHT22;7593;49.006;8.372;2023-08-17T00:40:34;21.30;99.90
14995;DHT22;7593;49.006;8.372;2023-08-17T00:43:03;21.30;99.90
14995;DHT22;7593;49.006;8.372;2023-08-17T00:45:30;21.20;99.90
14995;DHT22;7593;49.006;8.372;2023-08-17T00:47:58;21.20;99.90
14995;DHT22;7593;49.006;8.372;2023-08-17T00:50:25;21.20;99.90
14995;DHT22;7593;49.006;8.372;2023-08-17T00:52:53;21.20;99.90
14995;DHT22;7593;49.006;8.372;2023-08-17T00:55:20;21.10;99.90
14995;DHT22;7593;49.006;8.372;2023-08-17T00:57:47;21.10;99.90
14995;DHT22;7593;49.006;8.372;2023-08-17T01:00:15;21.10;99.90
14995;DHT22;7593;49.006;8.372;2023-08-17T01:02:43;21.00;99.90
14995;DHT22;7593;49.006;8.372;2023-08-17T01:05:10;21.00;99.90
14995;DHT22;7593;49.006;8.372;2023-08-17T01:07:36;20.90;99.90
14995;DHT22;7593;49.006;8.372;2023-08-17T01:10:06;20.90;99.90
14995;DHT22;7593;49.006;8.372;2023-08-17T01:12:38;20.90;99.90
14995;DHT22;7593;49.006;8.372;2023-08-17T01:15:10;20.90;99.90
14995;DHT22;7593;49.006;8.372;2023-08-17T01:17:42;20.90;99.90
14995;DHT22;7593;49.006;8.372;2023-08-17T01:20:11;20.80;99.90
14995;DHT22;7593;49.006;8.372;2023-08-17T01:22:41;20.80;99.90
14995;DHT22;7593;49.006;8.372;2023-08-17T01:25:10;20.80;99.90
14995;DHT22;7593;49.006;8.372;2023-08-17T01:27:39;20.80;99.90
14995;DHT22;7593;49.006;8.372;2023-08-17T01:30:07;20.70;99.90
14995;DHT22;7593;49.006;8.372;2023-08-17T01:32:38;20.60;99.90
14995;DHT22;7593;49.006;8.372;2023-08-17T01:35:15;20.60;99.90
14995;DHT22;7593;49.006;8.372;2023-08-17T01:37:43;20.60;99.90
14995;DHT22;7593;49.006;8.372;2023-08-17T01:40:12;20.60;99.90
14995;DHT22;7593;49.006;8.372;2023-08-17T01:42:41;20.60;99.90
14995;DHT22;7593;49.006;8.372;2023-08-17T01:45:08;20.50;99.90
14995;DHT22;7593;49.006;8.372;2023-08-17T01:47:35;20.50;99.90
14995;DHT22;7593;49.006;8.372;2023-08-17T01:50:02;20.50;99.90
14995;DHT22;7593;49.006;8.372;2023-08-17T01:52:29;20.40;99.90
14995;DHT22;7593;49.006;8.372;2023-08-17T01:54:55;20.40;99.90
14995;DHT22;7593;49.006;8.372;2023-08-17T01:57:24;20.40;99.90
14995;DHT22;7593;49.006;8.372;2023-08-17T01:59:50;20.40;99.90
14995;DHT22;7593;49.006;8.372;2023-08-17T02:02:17;20.30;99.90
14995;DHT22;7593;49.006;8.372;2023-08-17T02:04:44;20.30;99.90
14995;DHT22;7593;49.006;8.372;2023-08-17T02:07:10;20.30;99.90
14995;DHT22;7593;49.006;8.372;2023-08-17T02:09:37;20.30;99.90
14995;DHT22;7593;49.006;8.372;2023-08-17T02:12:05;20.30;99.90
14995;DHT22;7593;49.006;8.372;2023-08-17T02:14:33;20.30;99.90
14995;DHT22;7593;49.006;8.372;2023-08-17T02:17:00;20.30;99.90
14995;DHT22;7593;49.006;8.372;2023-08-17T02:19:27;20.30;99.90
14995;DHT22;7593;49.006;8.372;2023-08-17T02:21:53;20.30;99.90
14995;DHT22;7593;49.006;8.372;2023-08-17T02:24:20;20.20;99.90
14995;DHT22;7593;49.006;8.372;2023-08-17T02:26:47;20.20;99.90
14995;DHT22;7593;49.006;8.372;2023-08-17T02:29:14;20.20;99.90
14995;DHT22;7593;49.006;8.372;2023-08-17T02:31:42;20.20;99.90
14995;DHT22;7593;49.006;8.372;2023-08-17T02:34:08;20.10;99.90
14995;DHT22;7593;49.006;8.372;2023-08-17T02:36:35;20.10;99.90
14995;DHT22;7593;49.006;8.372;2023-08-17T02:39:02;20.10;99.90
14995;DHT22;7593;49.006;8.372;2023-08-17T02:41:30;20.10;99.90
14995;DHT22;7593;49.006;8.372;2023-08-17T02:43:57;20.10;99.90
14995;DHT22;7593;49.006;8.372;2023-08-17T02:46:24;20.10;99.90
14995;DHT22;7593;49.006;8.372;2023-08-17T02:48:52;20.10;99.90
14995;DHT22;7593;49.006;8.372;2023-08-17T02:51:19;20.00;99.90
14995;DHT22;7593;49.006;8.372;2023-08-17T02:53:45;20.00;99.90
14995;DHT22;7593;49.006;8.372;2023-08-17T02:56:12;20.00;99.90
14995;DHT22;7593;49.006;8.372;2023-08-17T02:58:39;20.00;99.90
14995;DHT22;7593;49.006;8.372;2023-08-17T03:01:06;20.00;99.90
14995;DHT22;7593;49.006;8.372;2023-08-17T03:03:33;20.00;99.90
14995;DHT22;7593;49.006;8.372;2023-08-17T03:06:02;20.00;99.90
14995;DHT22;7593;49.006;8.372;2023-08-17T03:08:29;20.00;99.90
14995;DHT22;7593;49.006;8.372;2023-08-17T03:10:55;20.00;99.90
14995;DHT22;7593;49.006;8.372;2023-08-17T03:13:22;20.00;99.90
14995;DHT22;7593;49.006;8.372;2023-08-17T03:15:49;20.00;99.90
14995;DHT22;7593;49.006;8.372;2023-08-17T03:18:17;20.00;99.90
14995;DHT22;7593;49.006;8.372;2023-08-17T03:20:44;20.00;99.90
14995;DHT22;7593;49.006;8.372;2023-08-17T03:23:12;19.90;99.90
14995;DHT22;7593;49.006;8.372;2023-08-17T03:25:39;19.90;99.90
14995;DHT22;7593;49.006;8.372;2023-08-17T03:28:06;19.90;99.90
14995;DHT22;7593;49.006;8.372;2023-08-17T03:30:33;19.90;99.90
14995;DHT22;7593;49.006;8.372;2023-08-17T03:32:59;19.80;99.90
14995;DHT22;7593;49.006;8.372;2023-08-17T03:35:26;19.80;99.90
14995;DHT22;7593;49.006;8.372;2023-08-17T03:37:53;19.80;99.90
14995;DHT22;7593;49.006;8.372;2023-08-17T03:40:21;19.80;99.90
14995;DHT22;7593;49.006;8.372;2023-08-17T03:42:47;19.70;99.90
14995;DHT22;7593;49.006;8.372;2023-08-17T03:45:14;19.70;99.90
14995;DHT22;7593;49.006;8.372;2023-08-17T03:47:41;19.60;99.90
14995;DHT22;7593;49.006;8.372;2023-08-17T03:50:09;19.60;99.90
14995;DHT22;7593;49.006;8.372;2023-08-17T03:52:36;19.60;99.90
14995;DHT22;7593;49.006;8.372;2023-08-17T03:55:03;19.60;99.90
14995;DHT22;7593;49.006;8.372;2023-08-17T03:57:33;19.50;99.90
14995;DHT22;7593;49.006;8.372;2023-08-17T04:00:00;19.50;99.90
14995;DHT22;7593;49.006;8.372;2023-08-17T04:02:27;19.50;99.90
14995;DHT22;7593;49.006;8.372;2023-08-17T04:04:53;19.50;99.90
14995;DHT22;7593;49.006;8.372;2023-08-17T04:07:21;19.40;99.90
14995;DHT22;7593;49.006;8.372;2023-08-17T04:09:47;19.40;99.90
14995;DHT22;7593;49.006;8.372;2023-08-17T04:12:14;19.40;99.90
14995;DHT22;7593;49.006;8.372;2023-08-17T04:14:42;19.40;99.90
14995;DHT22;7593;49.006;8.372;2023-08-17T04:17:09;19.30;99.90
14995;DHT22;7593;49.006;8.372;2023-08-17T04:19:36;19.30;99.90
14995;DHT22;7593;49.006;8.372;2023-08-17T04:22:03;19.30;99.90
14995;DHT22;7593;49.006;8.372;2023-08-17T04:24:29;19.30;99.90
14995;DHT22;7593;49.006;8.372;2023-08-17T04:26:56;19.30;99.90
14995;DHT22;7593;49.006;8.372;2023-08-17T04:29:23;19.30;99.90
14995;DHT22;7593;49.006;8.372;2023-08-17T04:31:51;19.30;99.90
14995;DHT22;7593;49.006;8.372;2023-08-17T04:34:18;19.30;99.90
14995;DHT22;7593;49.006;8.372;2023-08-17T04:36:45;19.30;99.90
14995;DHT22;7593;49.006;8.372;2023-08-17T04:39:11;19.30;99.90
14995;DHT22;7593;49.006;8.372;2023-08-17T04:41:38;19.20;99.90
14995;DHT22;7593;49.006;8.372;2023-08-17T04:44:05;19.20;99.90
14995;DHT22;7593;49.006;8.372;2023-08-17T04:46:32;19.10;99.90
14995;DHT22;7593;49.006;8.372;2023-08-17T04:49:00;19.10;99.90
14995;DHT22;7593;49.006;8.372;2023-08-17T04:51:27;19.10;99.90
14995;DHT22;7593;49.006;8.372;2023-08-17T04:53:54;19.10;99.90
14995;DHT22;7593;49.006;8.372;2023-08-17T04:56:20;19.10;99.90
14995;DHT22;7593;49.006;8.372;2023-08-17T04:58:47;19.10;99.90
14995;DHT22;7593;49.006;8.372;2023-08-17T05:01:14;19.10;99.90
14995;DHT22;7593;49.006;8.372;2023-08-17T05:03:40;19.10;99.90
14995;DHT22;7593;49.006;8.372;2023-08-17T05:06:08;19.20;99.90
14995;DHT22;7593;49.006;8.372;2023-08-17T05:08:35;19.20;99.90
14995;DHT22;7593;49.006;8.372;2023-08-17T05:11:02;19.30;99.90
14995;DHT22;7593;49.006;8.372;2023-08-17T05:13:28;19.30;99.90
14995;DHT22;7593;49.006;8.372;2023-08-17T05:15:55;19.30;99.90
14995;DHT22;7593;49.006;8.372;2023-08-17T05:18:22;19.40;99.90
14995;DHT22;7593;49.006;8.372;2023-08-17T05:20:49;19.50;99.90
14995;DHT22;7593;49.006;8.372;2023-08-17T05:23:17;19.50;99.90
14995;DHT22;7593;49.006;8.372;2023-08-17T05:25:46;19.60;99.90
14995;DHT22;7593;49.006;8.372;2023-08-17T05:28:13;19.70;99.90
14995;DHT22;7593;49.006;8.372;2023-08-17T05:30:40;19.70;99.90
14995;DHT22;7593;49.006;8.372;2023-08-17T05:33:07;19.70;99.90
14995;DHT22;7593;49.006;8.372;2023-08-17T05:35:34;19.80;99.90
14995;DHT22;7593;49.006;8.372;2023-08-17T05:38:00;19.80;99.90
14995;DHT22;7593;49.006;8.372;2023-08-17T05:40:30;19.80;99.90
14995;DHT22;7593;49.006;8.372;2023-08-17T05:42:57;19.90;99.90
14995;DHT22;7593;49.006;8.372;2023-08-17T05:45:24;19.90;99.90
14995;DHT22;7593;49.006;8.372;2023-08-17T05:47:51;19.90;99.90
14995;DHT22;7593;49.006;8.372;2023-08-17T05:50:18;20.00;99.90
14995;DHT22;7593;49.006;8.372;2023-08-17T05:52:45;20.00;99.90
14995;DHT22;7593;49.006;8.372;2023-08-17T05:55:12;20.20;99.90
14995;DHT22;7593;49.006;8.372;2023-08-17T05:57:40;20.10;99.90
14995;DHT22;7593;49.006;8.372;2023-08-17T06:00:08;20.10;99.90
14995;DHT22;7593;49.006;8.372;2023-08-17T06:02:37;20.10;99.90
14995;DHT22;7593;49.006;8.372;2023-08-17T06:05:05;20.10;99.90
14995;DHT22;7593;49.006;8.372;2023-08-17T06:07:31;20.20;99.90
14995;DHT22;7593;49.006;8.372;2023-08-17T06:09:58;20.20;99.90
14995;DHT22;7593;49.006;8.372;2023-08-17T06:12:25;20.20;99.90
14995;DHT22;7593;49.006;8.372;2023-08-17T06:14:53;20.20;99.90
14995;DHT22;7593;49.006;8.372;2023-08-17T06:17:20;20.20;99.90
14995;DHT22;7593;49.006;8.372;2023-08-17T06:19:46;20.20;99.90
14995;DHT22;7593;49.006;8.372;2023-08-17T06:22:13;20.20;99.90
14995;DHT22;7593;49.006;8.372;2023-08-17T06:24:40;20.20;99.90
14995;DHT22;7593;49.006;8.372;2023-08-17T06:27:06;20.20;99.90
14995;DHT22;7593;49.006;8.372;2023-08-17T06:29:33;20.20;99.90
14995;DHT22;7593;49.006;8.372;2023-08-17T06:32:01;20.30;99.90
14995;DHT22;7593;49.006;8.372;2023-08-17T06:34:28;20.20;99.90
14995;DHT22;7593;49.006;8.372;2023-08-17T06:36:58;20.30;99.90
14995;DHT22;7593;49.006;8.372;2023-08-17T06:39:25;20.30;99.90
14995;DHT22;7593;49.006;8.372;2023-08-17T06:41:52;20.30;99.90
14995;DHT22;7593;49.006;8.372;2023-08-17T06:44:19;20.40;99.90
14995;DHT22;7593;49.006;8.372;2023-08-17T06:46:46;20.40;99.90
14995;DHT22;7593;49.006;8.372;2023-08-17T06:49:15;20.50;99.90
14995;DHT22;7593;49.006;8.372;2023-08-17T06:51:41;20.50;99.90
14995;DHT22;7593;49.006;8.372;2023-08-17T06:54:08;20.60;99.90
14995;DHT22;7593;49.006;8.372;2023-08-17T06:56:35;20.70;99.90
14995;DHT22;7593;49.006;8.372;2023-08-17T06:59:02;20.80;99.90
14995;DHT22;7593;49.006;8.372;2023-08-17T07:01:29;20.90;99.90
14995;DHT22;7593;49.006;8.372;2023-08-17T07:03:56;21.00;99.90
14995;DHT22;7593;49.006;8.372;2023-08-17T07:06:23;21.10;99.90
14995;DHT22;7593;49.006;8.372;2023-08-17T07:08:50;21.10;99.90
14995;DHT22;7593;49.006;8.372;2023-08-17T07:11:18;21.10;99.90
14995;DHT22;7593;49.006;8.372;2023-08-17T07:13:45;21.10;99.90
14995;DHT22;7593;49.006;8.372;2023-08-17T07:16:12;21.00;99.90
14995;DHT22;7593;49.006;8.372;2023-08-17T07:18:39;21.10;99.90
14995;DHT22;7593;49.006;8.372;2023-08-17T07:21:06;21.20;99.90
14995;DHT22;7593;49.006;8.372;2023-08-17T07:23:34;21.30;99.90
14995;DHT22;7593;49.006;8.372;2023-08-17T07:26:00;21.30;99.90
14995;DHT22;7593;49.006;8.372;2023-08-17T07:28:27;21.40;99.90
14995;DHT22;7593;49.006;8.372;2023-08-17T07:30:54;21.50;99.90
14995;DHT22;7593;49.006;8.372;2023-08-17T07:33:21;21.60;99.90
14995;DHT22;7593;49.006;8.372;2023-08-17T07:35:47;21.50;99.90
14995;DHT22;7593;49.006;8.372;2023-08-17T07:38:14;21.50;99.90
14995;DHT22;7593;49.006;8.372;2023-08-17T07:40:42;21.50;99.90
14995;DHT22;7593;49.006;8.372;2023-08-17T07:43:09;21.60;99.90
14995;DHT22;7593;49.006;8.372;2023-08-17T07:45:35;21.70;99.90
14995;DHT22;7593;49.006;8.372;2023-08-17T07:48:02;21.70;99.90
14995;DHT22;7593;49.006;8.372;2023-08-17T07:50:29;21.80;99.90
14995;DHT22;7593;49.006;8.372;2023-08-17T07:52:56;21.90;99.90
14995;DHT22;7593;49.006;8.372;2023-08-17T07:55:23;22.00;99.90
14995;DHT22;7593;49.006;8.372;2023-08-17T07:57:51;22.00;99.90
14995;DHT22;7593;49.006;8.372;2023-08-17T08:00:18;22.00;99.90
14995;DHT22;7593;49.006;8.372;2023-08-17T08:02:46;22.10;99.90
14995;DHT22;7593;49.006;8.372;2023-08-17T08:05:12;22.20;99.90
14995;DHT22;7593;49.006;8.372;2023-08-17T08:07:39;22.20;99.90
14995;DHT22;7593;49.006;8.372;2023-08-17T08:10:07;22.30;99.90
14995;DHT22;7593;49.006;8.372;2023-08-17T08:12:34;22.50;99.90
14995;DHT22;7593;49.006;8.372;2023-08-17T08:15:02;22.60;99.90
14995;DHT22;7593;49.006;8.372;2023-08-17T08:17:29;22.60;99.90
14995;DHT22;7593;49.006;8.372;2023-08-17T08:19:55;22.70;99.90
14995;DHT22;7593;49.006;8.372;2023-08-17T08:22:23;22.80;99.90
14995;DHT22;7593;49.006;8.372;2023-08-17T08:24:50;22.90;99.90
14995;DHT22;7593;49.006;8.372;2023-08-17T08:27:17;22.90;99.90
14995;DHT22;7593;49.006;8.372;2023-08-17T08:29:44;22.90;99.90
14995;DHT22;7593;49.006;8.372;2023-08-17T08:32:12;22.80;99.90
14995;DHT22;7593;49.006;8.372;2023-08-17T08:34:39;22.80;99.90
14995;DHT22;7593;49.006;8.372;2023-08-17T08:37:06;22.80;99.90
14995;DHT22;7593;49.006;8.372;2023-08-17T08:39:33;22.80;99.90
14995;DHT22;7593;49.006;8.372;2023-08-17T08:42:14;22.90;99.90
14995;DHT22;7593;49.006;8.372;2023-08-17T08:44:40;23.00;99.90
14995;DHT22;7593;49.006;8.372;2023-08-17T08:47:07;23.10;99.90
14995;DHT22;7593;49.006;8.372;2023-08-17T08:49:38;23.20;99.90
14995;DHT22;7593;49.006;8.372;2023-08-17T08:52:07;23.30;99.90
14995;DHT22;7593;49.006;8.372;2023-08-17T08:54:35;23.40;99.90
14995;DHT22;7593;49.006;8.372;2023-08-17T08:57:08;23.50;99.90
14995;DHT22;7593;49.006;8.372;2023-08-17T08:59:37;23.50;99.90
14995;DHT22;7593;49.006;8.372;2023-08-17T09:02:10;23.60;99.90
14995;DHT22;7593;49.006;8.372;2023-08-17T09:04:39;23.70;99.90
14995;DHT22;7593;49.006;8.372;2023-08-17T09:07:06;23.80;99.90
14995;DHT22;7593;49.006;8.372;2023-08-17T09:09:34;24.10;99.90
14995;DHT22;7593;49.006;8.372;2023-08-17T09:12:02;24.30;99.90
14995;DHT22;7593;49.006;8.372;2023-08-17T09:14:29;24.40;99.90
14995;DHT22;7593;49.006;8.372;2023-08-17T09:16:55;24.50;99.90
14995;DHT22;7593;49.006;8.372;2023-08-17T09:19:24;24.60;99.90
14995;DHT22;7593;49.006;8.372;2023-08-17T09:21:53;24.70;99.90
14995;DHT22;7593;49.006;8.372;2023-08-17T09:24:20;24.90;99.90
14995;DHT22;7593;49.006;8.372;2023-08-17T09:26:48;24.90;99.90
14995;DHT22;7593;49.006;8.372;2023-08-17T09:29:18;25.00;99.90
14995;DHT22;7593;49.006;8.372;2023-08-17T09:31:45;25.10;99.90
14995;DHT22;7593;49.006;8.372;2023-08-17T09:34:14;25.20;99.90
14995;DHT22;7593;49.006;8.372;2023-08-17T09:36:41;25.30;99.90
14995;DHT22;7593;49.006;8.372;2023-08-17T09:39:09;25.20;99.90
14995;DHT22;7593;49.006;8.372;2023-08-17T09:41:41;25.40;99.90
14995;DHT22;7593;49.006;8.372;2023-08-17T09:44:08;25.50;99.90
14995;DHT22;7593;49.006;8.372;2023-08-17T09:46:35;25.50;99.90
14995;DHT22;7593;49.006;8.372;2023-08-17T09:49:02;25.50;99.90
14995;DHT22;7593;49.006;8.372;2023-08-17T09:51:31;25.50;99.90
14995;DHT22;7593;49.006;8.372;2023-08-17T09:53:58;25.50;99.90
14995;DHT22;7593;49.006;8.372;2023-08-17T09:56:27;25.50;99.90
14995;DHT22;7593;49.006;8.372;2023-08-17T09:58:54;25.60;99.90
14995;DHT22;7593;49.006;8.372;2023-08-17T10:01:22;25.90;99.90
14995;DHT22;7593;49.006;8.372;2023-08-17T10:03:51;26.30;99.90
14995;DHT22;7593;49.006;8.372;2023-08-17T10:06:22;26.90;99.90
14995;DHT22;7593;49.006;8.372;2023-08-17T10:08:53;27.60;99.90
14995;DHT22;7593;49.006;8.372;2023-08-17T10:11:26;27.90;99.90
14995;DHT22;7593;49.006;8.372;2023-08-17T10:13:59;28.00;99.90
14995;DHT22;7593;49.006;8.372;2023-08-17T10:16:33;27.90;99.90
14995;DHT22;7593;49.006;8.372;2023-08-17T10:19:05;27.90;99.90
14995;DHT22;7593;49.006;8.372;2023-08-17T10:21:54;28.10;99.90
14995;DHT22;7593;49.006;8.372;2023-08-17T10:24:23;28.40;99.90
14995;DHT22;7593;49.006;8.372;2023-08-17T10:26:51;28.90;99.90
14995;DHT22;7593;49.006;8.372;2023-08-17T10:29:21;28.90;99.90
14995;DHT22;7593;49.006;8.372;2023-08-17T10:31:49;29.10;99.90
14995;DHT22;7593;49.006;8.372;2023-08-17T10:34:16;29.70;99.90
14995;DHT22;7593;49.006;8.372;2023-08-17T10:36:46;30.30;99.90
14995;DHT22;7593;49.006;8.372;2023-08-17T10:39:18;30.40;99.90
14995;DHT22;7593;49.006;8.372;2023-08-17T10:41:47;30.20;99.90
14995;DHT22;7593;49.006;8.372;2023-08-17T10:44:15;29.60;99.90
14995;DHT22;7593;49.006;8.372;2023-08-17T10:46:44;29.30;99.90
14995;DHT22;7593;49.006;8.372;2023-08-17T10:49:25;29.00;99.90
14995;DHT22;7593;49.006;8.372;2023-08-17T10:52:03;29.00;99.90
14995;DHT22;7593;49.006;8.372;2023-08-17T10:54:36;29.30;99.90
14995;DHT22;7593;49.006;8.372;2023-08-17T10:57:24;29.60;99.90
14995;DHT22;7593;49.006;8.372;2023-08-17T11:00:17;29.60;99.90
14995;DHT22;7593;49.006;8.372;2023-08-17T11:02:55;29.50;99.90
14995;DHT22;7593;49.006;8.372;2023-08-17T11:05:35;29.00;99.90
14995;DHT22;7593;49.006;8.372;2023-08-17T11:08:02;28.80;99.90
14995;DHT22;7593;49.006;8.372;2023-08-17T11:10:30;28.80;99.90
14995;DHT22;7593;49.006;8.372;2023-08-17T11:12:57;28.80;99.90
14995;DHT22;7593;49.006;8.372;2023-08-17T11:15:26;28.70;99.90
14995;DHT22;7593;49.006;8.372;2023-08-17T11:18:06;29.00;99.90
14995;DHT22;7593;49.006;8.372;2023-08-17T11:20:33;29.10;99.90
14995;DHT22;7593;49.006;8.372;2023-08-17T11:23:00;29.00;99.90
14995;DHT22;7593;49.006;8.372;2023-08-17T11:25:27;28.70;99.90
14995;DHT22;7593;49.006;8.372;2023-08-17T11:27:54;28.90;99.90
14995;DHT22;7593;49.006;8.372;2023-08-17T11:30:22;29.40;99.90
14995;DHT22;7593;49.006;8.372;2023-08-17T11:32:49;29.90;99.90
14995;DHT22;7593;49.006;8.372;2023-08-17T11:35:18;30.40;99.90
14995;DHT22;7593;49.006;8.372;2023-08-17T11:37:45;30.60;99.90
14995;DHT22;7593;49.006;8.372;2023-08-17T11:40:12;31.10;99.90
14995;DHT22;7593;49.006;8.372;2023-08-17T11:42:39;31.00;99.90
14995;DHT22;7593;49.006;8.372;2023-08-17T11:45:06;30.60;99.90
14995;DHT22;7593;49.006;8.372;2023-08-17T11:47:35;30.40;99.90
14995;DHT22;7593;49.006;8.372;2023-08-17T11:50:03;30.20;99.90
14995;DHT22;7593;49.006;8.372;2023-08-17T11:52:32;30.70;99.90
14995;DHT22;7593;49.006;8.372;2023-08-17T11:54:59;31.00;99.90
14995;DHT22;7593;49.006;8.372;2023-08-17T11:57:26;31.10;99.90
14995;DHT22;7593;49.006;8.372;2023-08-17T11:59:53;30.90;99.90
14995;DHT22;7593;49.006;8.372;2023-08-17T12:02:21;30.40;99.90
14995;DHT22;7593;49.006;8.372;2023-08-17T12:04:48;29.70;99.90
14995;DHT22;7593;49.006;8.372;2023-08-17T12:07:15;29.10;99.90
14995;DHT22;7593;49.006;8.372;2023-08-17T12:09:44;28.60;99.90
14995;DHT22;7593;49.006;8.372;2023-08-17T12:12:12;28.40;99.90
14995;DHT22;7593;49.006;8.372;2023-08-17T12:14:41;28.10;99.90
14995;DHT22;7593;49.006;8.372;2023-08-17T12:17:14;28.20;99.90
14995;DHT22;7593;49.006;8.372;2023-08-17T12:19:41;28.60;99.90
14995;DHT22;7593;49.006;8.372;2023-08-17T12:22:08;29.10;99.90
14995;DHT22;7593;49.006;8.372;2023-08-17T12:24:35;30.00;99.90
14995;DHT22;7593;49.006;8.372;2023-08-17T12:27:04;31.00;99.90
14995;DHT22;7593;49.006;8.372;2023-08-17T12:29:31;32.00;99.90
14995;DHT22;7593;49.006;8.372;2023-08-17T12:31:58;32.70;99.90
14995;DHT22;7593;49.006;8.372;2023-08-17T12:34:24;32.60;99.90
14995;DHT22;7593;49.006;8.372;2023-08-17T12:36:51;32.00;99.90
14995;DHT22;7593;49.006;8.372;2023-08-17T12:39:18;31.40;99.90
14995;DHT22;7593;49.006;8.372;2023-08-17T12:41:45;31.40;99.90
14995;DHT22;7593;49.006;8.372;2023-08-17T12:44:13;31.80;99.90
14995;DHT22;7593;49.006;8.372;2023-08-17T12:46:40;32.00;99.90
14995;DHT22;7593;49.006;8.372;2023-08-17T12:49:06;32.10;99.90
14995;DHT22;7593;49.006;8.372;2023-08-17T12:51:33;32.20;99.90
14995;DHT22;7593;49.006;8.372;2023-08-17T12:54:00;32.50;99.90
14995;DHT22;7593;49.006;8.372;2023-08-17T12:56:27;32.10;99.90
14995;DHT22;7593;49.006;8.372;2023-08-17T12:58:53;31.50;99.90
14995;DHT22;7593;49.006;8.372;2023-08-17T13:01:21;31.30;99.90
14995;DHT22;7593;49.006;8.372;2023-08-17T13:03:48;30.90;99.90
14995;DHT22;7593;49.006;8.372;2023-08-17T13:06:15;30.80;99.90
14995;DHT22;7593;49.006;8.372;2023-08-17T13:08:42;30.50;99.90
14995;DHT22;7593;49.006;8.372;2023-08-17T13:11:09;30.60;99.90
14995;DHT22;7593;49.006;8.372;2023-08-17T13:13:36;30.60;99.90
14995;DHT22;7593;49.006;8.372;2023-08-17T13:16:03;30.60;99.90
14995;DHT22;7593;49.006;8.372;2023-08-17T13:18:31;30.50;99.90
14995;DHT22;7593;49.006;8.372;2023-08-17T13:20:58;30.50;99.90
14995;DHT22;7593;49.006;8.372;2023-08-17T13:23:25;30.40;99.90
14995;DHT22;7593;49.006;8.372;2023-08-17T13:25:51;30.40;99.90
14995;DHT22;7593;49.006;8.372;2023-08-17T13:28:18;30.50;99.90
14995;DHT22;7593;49.006;8.372;2023-08-17T13:30:45;30.50;99.90
14995;DHT22;7593;49.006;8.372;2023-08-17T13:33:12;30.40;99.90
14995;DHT22;7593;49.006;8.372;2023-08-17T13:35:40;30.50;99.90
14995;DHT22;7593;49.006;8.372;2023-08-17T13:38:06;30.70;99.90
14995;DHT22;7593;49.006;8.372;2023-08-17T13:40:33;31.00;99.90
14995;DHT22;7593;49.006;8.372;2023-08-17T13:43:01;31.50;99.90
14995;DHT22;7593;49.006;8.372;2023-08-17T13:45:29;31.70;99.90
14995;DHT22;7593;49.006;8.372;2023-08-17T13:47:55;31.90;99.90
14995;DHT22;7593;49.006;8.372;2023-08-17T13:50:22;32.10;99.90
14995;DHT22;7593;49.006;8.372;2023-08-17T13:52:50;32.00;99.90
14995;DHT22;7593;49.006;8.372;2023-08-17T13:55:17;31.90;99.90
14995;DHT22;7593;49.006;8.372;2023-08-17T13:57:45;31.70;99.90
14995;DHT22;7593;49.006;8.372;2023-08-17T14:00:13;31.80;99.90
14995;DHT22;7593;49.006;8.372;2023-08-17T14:02:40;31.80;99.90
14995;DHT22;7593;49.006;8.372;2023-08-17T14:05:07;32.00;99.90
14995;DHT22;7593;49.006;8.372;2023-08-17T14:07:34;32.30;99.90
14995;DHT22;7593;49.006;8.372;2023-08-17T14:10:02;32.40;99.90
14995;DHT22;7593;49.006;8.372;2023-08-17T14:12:29;31.90;99.90
14995;DHT22;7593;49.006;8.372;2023-08-17T14:14:55;31.80;99.90
14995;DHT22;7593;49.006;8.372;2023-08-17T14:17:22;32.00;99.90
14995;DHT22;7593;49.006;8.372;2023-08-17T14:19:49;32.70;99.90
14995;DHT22;7593;49.006;8.372;2023-08-17T14:22:15;33.50;99.90
14995;DHT22;7593;49.006;8.372;2023-08-17T14:24:42;34.10;99.90
14995;DHT22;7593;49.006;8.372;2023-08-17T14:27:10;34.30;99.90
14995;DHT22;7593;49.006;8.372;2023-08-17T14:29:37;34.70;99.90
14995;DHT22;7593;49.006;8.372;2023-08-17T14:32:04;35.20;99.90
14995;DHT22;7593;49.006;8.372;2023-08-17T14:34:31;35.30;99.90
14995;DHT22;7593;49.006;8.372;2023-08-17T14:36:57;35.20;99.90
14995;DHT22;7593;49.006;8.372;2023-08-17T14:39:24;35.20;99.90
14995;DHT22;7593;49.006;8.372;2023-08-17T14:41:51;34.80;99.90
14995;DHT22;7593;49.006;8.372;2023-08-17T14:44:19;34.50;99.90
14995;DHT22;7593;49.006;8.372;2023-08-17T14:46:46;34.20;99.90
14995;DHT22;7593;49.006;8.372;2023-08-17T14:49:13;33.90;99.90
14995;DHT22;7593;49.006;8.372;2023-08-17T14:51:40;33.70;99.90
14995;DHT22;7593;49.006;8.372;2023-08-17T14:54:08;33.70;99.90
14995;DHT22;7593;49.006;8.372;2023-08-17T14:56:35;33.80;99.90
14995;DHT22;7593;49.006;8.372;2023-08-17T14:59:02;33.70;99.90
14995;DHT22;7593;49.006;8.372;2023-08-17T15:01:30;34.10;99.90
14995;DHT22;7593;49.006;8.372;2023-08-17T15:03:57;34.10;99.90
14995;DHT22;7593;49.006;8.372;2023-08-17T15:06:24;34.20;99.90
14995;DHT22;7593;49.006;8.372;2023-08-17T15:08:51;34.20;99.90
14995;DHT22;7593;49.006;8.372;2023-08-17T15:11:17;34.70;99.90
14995;DHT22;7593;49.006;8.372;2023-08-17T15:13:44;34.90;99.90
14995;DHT22;7593;49.006;8.372;2023-08-17T15:16:11;34.90;99.90
14995;DHT22;7593;49.006;8.372;2023-08-17T15:18:39;34.60;99.90
14995;DHT22;7593;49.006;8.372;2023-08-17T15:21:06;34.30;99.90
14995;DHT22;7593;49.006;8.372;2023-08-17T15:23:33;33.70;99.90
14995;DHT22;7593;49.006;8.372;2023-08-17T15:25:59;33.20;99.90
14995;DHT22;7593;49.006;8.372;2023-08-17T15:28:26;32.90;99.90
14995;DHT22;7593;49.006;8.372;2023-08-17T15:31:00;32.60;99.90
14995;DHT22;7593;49.006;8.372;2023-08-17T15:33:27;32.00;99.90
14995;DHT22;7593;49.006;8.372;2023-08-17T15:35:55;31.50;99.90
14995;DHT22;7593;49.006;8.372;2023-08-17T15:38:23;31.10;99.90
14995;DHT22;7593;49.006;8.372;2023-08-17T15:40:50;30.90;99.90
14995;DHT22;7593;49.006;8.372;2023-08-17T15:43:16;30.80;99.90
14995;DHT22;7593;49.006;8.372;2023-08-17T15:45:43;30.50;99.90
14995;DHT22;7593;49.006;8.372;2023-08-17T15:48:10;30.40;99.90